GOL339 SBSP-SBGL
Flight info
| Callsign | GOL339 |
|---|---|
| Flight time | N/A |
| Altitude | 25000 |
| Route | UREMI UZ42 VUREP |
| Aircraft | B738/M-SDE2E3FGHIRWXY/LB1 |
Departure
| Time | N/A |
|---|---|
| Airport | Congonhas–Deputado Freitas Nobre Airport (SBSP) |
Arrival
| Time | 2026-04-28 20:12 |
|---|---|
| Airport | Rio Galeão – Tom Jobim International Airport (SBGL) |
| Time | Latitude | Longitude | Altitude | Speed | Heading |
|---|---|---|---|---|---|
| 2026-04-28 19:56 | -23.69049 | -46.28014 | 15181 ft | 355 kts | 79° |
| 2026-04-28 19:56 | -23.67499 | -46.17105 | 17656 ft | 372 kts | 78° |
| 2026-04-28 19:56 | -23.64361 | -46.06312 | 19740 ft | 379 kts | 58° |
| 2026-04-28 19:57 | -23.59308 | -45.96045 | 21590 ft | 394 kts | 58° |
| 2026-04-28 19:57 | -23.54387 | -45.85347 | 23248 ft | 408 kts | 59° |
| 2026-04-28 19:57 | -23.49184 | -45.73824 | 24681 ft | 421 kts | 59° |
| 2026-04-28 19:57 | -23.43863 | -45.62183 | 25155 ft | 454 kts | 59° |
| 2026-04-28 19:58 | -23.38348 | -45.49689 | 24972 ft | 457 kts | 66° |
| 2026-04-28 19:58 | -23.35700 | -45.36248 | 24904 ft | 448 kts | 75° |
| 2026-04-28 19:58 | -23.31030 | -45.14357 | 25016 ft | 444 kts | 73° |
| 2026-04-28 19:58 | -23.25311 | -44.88246 | 24921 ft | 436 kts | 73° |
| 2026-04-28 19:59 | -23.20025 | -44.63833 | 24577 ft | 387 kts | 72° |
| 2026-04-28 19:59 | -23.15566 | -44.42580 | 24490 ft | 340 kts | 72° |
| 2026-04-28 19:59 | -23.11582 | -44.23126 | 24813 ft | 324 kts | 73° |
| 2026-04-28 19:59 | -23.10307 | -44.16936 | 24942 ft | 328 kts | 73° |
| 2026-04-28 20:00 | -23.09797 | -44.14477 | 24970 ft | 339 kts | 73° |
| 2026-04-28 20:00 | -23.09257 | -44.11913 | 24631 ft | 360 kts | 73° |
| 2026-04-28 20:00 | -23.08655 | -44.09156 | 23902 ft | 391 kts | 73° |
| 2026-04-28 20:00 | -23.07993 | -44.06210 | 23084 ft | 407 kts | 73° |
| 2026-04-28 20:01 | -23.07317 | -44.03229 | 22239 ft | 416 kts | 73° |
| 2026-04-28 20:01 | -23.06511 | -44.00186 | 21362 ft | 420 kts | 62° |
| 2026-04-28 20:01 | -23.04872 | -43.97612 | 20550 ft | 415 kts | 40° |
| 2026-04-28 20:01 | -23.02776 | -43.95437 | 19782 ft | 419 kts | 40° |
| 2026-04-28 20:02 | -23.00706 | -43.93183 | 18997 ft | 422 kts | 41° |
| 2026-04-28 20:02 | -22.98669 | -43.90922 | 18359 ft | 413 kts | 42° |
| 2026-04-28 20:02 | -22.96698 | -43.88736 | 18070 ft | 394 kts | 41° |
| 2026-04-28 20:02 | -22.94823 | -43.86668 | 17859 ft | 375 kts | 41° |
| 2026-04-28 20:03 | -22.92992 | -43.84668 | 17145 ft | 372 kts | 41° |
| 2026-04-28 20:03 | -22.91165 | -43.82686 | 16404 ft | 371 kts | 41° |
| 2026-04-28 20:03 | -22.89700 | -43.81138 | 11146 ft | 366 kts | 40° |
| 2026-04-28 20:03 | -22.87898 | -43.79252 | 10441 ft | 362 kts | 44° |
| 2026-04-28 20:04 | -22.86127 | -43.77284 | 9738 ft | 358 kts | 44° |
| 2026-04-28 20:04 | -22.84398 | -43.75372 | 9288 ft | 351 kts | 44° |
| 2026-04-28 20:04 | -22.82380 | -43.73168 | 9141 ft | 349 kts | 44° |
| 2026-04-28 20:04 | -22.80286 | -43.68536 | 8945 ft | 357 kts | 76° |
| 2026-04-28 20:05 | -22.79164 | -43.63446 | 8787 ft | 332 kts | 75° |
| 2026-04-28 20:05 | -22.78344 | -43.59903 | 8577 ft | 305 kts | 74° |
| 2026-04-28 20:05 | -22.77833 | -43.57721 | 8247 ft | 296 kts | 74° |
| 2026-04-28 20:05 | -22.77305 | -43.55519 | 7492 ft | 303 kts | 71° |
| 2026-04-28 20:06 | -22.76352 | -43.53519 | 6841 ft | 298 kts | 53° |
| 2026-04-28 20:06 | -22.75135 | -43.51709 | 6127 ft | 295 kts | 52° |
| 2026-04-28 20:06 | -22.74047 | -43.50106 | 4500 ft | 292 kts | 53° |
| 2026-04-28 20:06 | -22.72693 | -43.48080 | 3744 ft | 285 kts | 55° |
| 2026-04-28 20:07 | -22.70624 | -43.44908 | 3222 ft | 254 kts | 56° |
| 2026-04-28 20:07 | -22.69956 | -43.43865 | 3216 ft | 245 kts | 59° |
| 2026-04-28 20:07 | -22.69524 | -43.41556 | 3203 ft | 235 kts | 102° |
| 2026-04-28 20:07 | -22.70167 | -43.40000 | 3099 ft | 222 kts | 125° |
| 2026-04-28 20:08 | -22.71131 | -43.38760 | 2938 ft | 207 kts | 131° |
| 2026-04-28 20:08 | -22.72105 | -43.37610 | 2589 ft | 204 kts | 131° |
| 2026-04-28 20:08 | -22.73044 | -43.36491 | 2316 ft | 197 kts | 131° |
| 2026-04-28 20:08 | -22.73936 | -43.35423 | 2111 ft | 184 kts | 130° |
| 2026-04-28 20:09 | -22.75401 | -43.35166 | 1976 ft | 181 kts | 126° |
| 2026-04-28 20:09 | -22.74961 | -43.33413 | 1778 ft | 182 kts | 127° |
| 2026-04-28 20:09 | -22.76277 | -43.33004 | 1601 ft | 170 kts | 132° |
| 2026-04-28 20:09 | -22.77094 | -43.32061 | 1428 ft | 170 kts | 134° |
| 2026-04-28 20:10 | -22.77831 | -43.31124 | 1239 ft | 155 kts | 127° |
| 2026-04-28 20:10 | -22.78477 | -43.30225 | 1087 ft | 153 kts | 129° |
| 2026-04-28 20:10 | -22.79165 | -43.29332 | 808 ft | 155 kts | 130° |
| 2026-04-28 20:10 | -22.79834 | -43.28458 | 583 ft | 143 kts | 128° |
| 2026-04-28 20:11 | -22.80400 | -43.27626 | 368 ft | 132 kts | 127° |
| 2026-04-28 20:11 | -22.80922 | -43.26826 | 191 ft | 125 kts | 126° |
| 2026-04-28 20:11 | -22.81441 | -43.26058 | 40 ft | 125 kts | 126° |
| 2026-04-28 20:11 | -22.81913 | -43.25350 | 24 ft | 99 kts | 127° |
| 2026-04-28 20:12 | -22.82153 | -43.24994 | 22 ft | 39 kts | 127° |
| 2026-04-28 20:12 | -22.82301 | -43.24760 | 19 ft | 32 kts | 120° |
| 2026-04-28 20:12 | -22.82357 | -43.24577 | 19 ft | 5 kts | 97° |
| 2026-04-28 20:12 | -22.82359 | -43.24552 | 18 ft | 5 kts | 96° |
| 2026-04-28 20:13 | -22.82364 | -43.24495 | 18 ft | 7 kts | 94° |
| 2026-04-28 20:13 | -22.82353 | -43.24443 | 18 ft | 7 kts | 55° |
| 2026-04-28 20:13 | -22.82312 | -43.24406 | 17 ft | 9 kts | 37° |
| 2026-04-28 20:13 | -22.82259 | -43.24364 | 19 ft | 14 kts | 36° |
| 2026-04-28 20:14 | -22.82190 | -43.24310 | 20 ft | 12 kts | 35° |
| 2026-04-28 20:14 | -22.82115 | -43.24322 | 20 ft | 13 kts | 312° |
| 2026-04-28 20:14 | -22.82048 | -43.24420 | 20 ft | 18 kts | 305° |
| 2026-04-28 20:14 | -22.81973 | -43.24535 | 20 ft | 18 kts | 308° |
| 2026-04-28 20:15 | -22.81873 | -43.24594 | 20 ft | 18 kts | 22° |
| 2026-04-28 20:15 | -22.81746 | -43.24586 | 21 ft | 21 kts | 304° |
| 2026-04-28 20:15 | -22.81669 | -43.24708 | 21 ft | 18 kts | 306° |
| 2026-04-28 20:15 | -22.81601 | -43.24823 | 21 ft | 18 kts | 303° |
| 2026-04-28 20:16 | -22.81529 | -43.24842 | 21 ft | 10 kts | 22° |
| 2026-04-28 20:16 | -22.81502 | -43.24815 | 22 ft | 1 kts | 60° |
| 2026-04-28 20:16 | -22.81501 | -43.24813 | 22 ft | 0 kts | 60° |
| 2026-04-28 20:21 | -22.81600 | -43.25001 | 21 ft | 0 kts | 60° |
| 2026-04-28 20:21 | -22.81498 | -43.24808 | 21 ft | 0 kts | 60° |